createdAt,value
2023-03-17T00:00:39.519Z,98437.00
2023-03-17T00:03:07.468Z,98455.00
2023-03-17T00:05:36.148Z,98392.00
2023-03-17T00:08:06.302Z,98451.00
2023-03-17T00:10:34.254Z,98412.00
2023-03-17T00:13:03.792Z,98418.00
2023-03-17T00:15:31.794Z,98376.00
2023-03-17T00:17:59.790Z,98433.00
2023-03-17T00:20:28.944Z,98395.00
2023-03-17T00:22:58.464Z,98445.00
2023-03-17T00:25:27.310Z,98374.00
2023-03-17T00:27:55.442Z,98363.00
2023-03-17T00:30:25.010Z,98431.00
2023-03-17T00:32:53.407Z,98410.00
2023-03-17T00:35:23.018Z,98422.00
2023-03-17T00:37:52.417Z,98414.00
2023-03-17T00:40:22.350Z,98416.00
2023-03-17T00:42:51.123Z,98407.00
2023-03-17T00:45:19.696Z,98403.00
2023-03-17T00:47:49.252Z,98398.00
2023-03-17T00:50:18.445Z,98403.00
2023-03-17T00:52:47.141Z,98388.00
2023-03-17T00:55:15.682Z,98387.00
2023-03-17T00:57:43.850Z,98394.00
2023-03-17T01:00:23.049Z,98394.00
2023-03-17T01:02:52.604Z,98393.00
2023-03-17T01:05:21.028Z,98394.00
2023-03-17T01:07:52.935Z,98392.00
2023-03-17T01:10:22.600Z,98386.00
2023-03-17T01:12:51.352Z,98391.00
2023-03-17T01:15:19.757Z,98373.00
2023-03-17T01:17:47.788Z,98368.00
2023-03-17T01:20:19.468Z,98363.00
2023-03-17T01:22:47.908Z,98364.00
2023-03-17T01:25:17.198Z,98363.00
2023-03-17T01:27:45.684Z,98359.00
2023-03-17T01:30:23.799Z,98372.00
2023-03-17T01:32:51.874Z,98362.00
2023-03-17T01:35:21.542Z,98367.00
2023-03-17T01:37:50.509Z,98373.00
2023-03-17T01:40:20.292Z,98369.00
2023-03-17T01:42:49.670Z,98373.00
2023-03-17T01:45:54.958Z,98363.00
2023-03-17T01:48:23.533Z,98358.00
2023-03-17T01:50:53.320Z,98361.00
2023-03-17T01:53:21.439Z,98358.00
2023-03-17T01:55:49.520Z,98346.00
2023-03-17T01:58:17.812Z,98351.00
2023-03-17T02:00:46.557Z,98357.00
2023-03-17T02:03:15.664Z,98356.00
2023-03-17T02:05:44.169Z,98352.00
2023-03-17T02:08:14.806Z,98346.00
2023-03-17T02:10:43.440Z,98335.00
2023-03-17T02:13:11.948Z,98334.00
2023-03-17T02:15:40.936Z,98329.00
2023-03-17T02:18:09.115Z,98330.00
2023-03-17T02:21:14.303Z,98318.00
2023-03-17T02:23:43.878Z,98307.00
2023-03-17T02:26:12.678Z,98309.00
2023-03-17T02:28:41.070Z,98319.00
2023-03-17T02:31:09.517Z,98316.00
2023-03-17T02:33:37.578Z,98318.00
2023-03-17T02:36:06.255Z,98317.00
2023-03-17T02:38:34.295Z,98319.00
2023-03-17T02:41:03.796Z,98324.00
2023-03-17T02:43:31.859Z,98318.00
2023-03-17T02:45:59.991Z,98315.00
2023-03-17T02:48:28.108Z,98316.00
2023-03-17T02:50:56.188Z,98311.00
2023-03-17T02:53:24.286Z,98310.00
2023-03-17T02:55:52.320Z,98321.00
2023-03-17T02:58:21.743Z,98309.00
2023-03-17T03:00:53.200Z,98302.00
2023-03-17T03:03:21.260Z,98299.00
2023-03-17T03:05:49.309Z,98300.00
2023-03-17T03:08:17.540Z,98308.00
2023-03-17T03:10:45.802Z,98303.00
2023-03-17T03:13:13.836Z,98299.00
2023-03-17T03:15:43.950Z,98297.00
2023-03-17T03:18:12.620Z,98294.00
2023-03-17T03:20:43.173Z,98288.00
2023-03-17T03:23:11.445Z,98298.00
2023-03-17T03:25:39.648Z,98297.00
2023-03-17T03:28:08.760Z,98291.00
2023-03-17T03:30:37.114Z,98282.00
2023-03-17T03:33:06.650Z,98286.00
2023-03-17T03:35:35.399Z,98298.00
2023-03-17T03:38:03.620Z,98301.00
2023-03-17T03:40:32.169Z,98289.00
2023-03-17T03:43:07.528Z,98297.00
2023-03-17T03:45:41.015Z,98287.00
2023-03-17T03:48:10.501Z,98291.00
2023-03-17T03:50:38.653Z,98291.00
2023-03-17T03:53:07.307Z,98291.00
2023-03-17T03:55:35.319Z,98292.00
2023-03-17T03:58:03.370Z,98288.00
2023-03-17T04:00:32.410Z,98285.00
2023-03-17T04:03:01.374Z,98290.00
2023-03-17T04:05:30.975Z,98273.00
2023-03-17T04:07:59.187Z,98273.00
2023-03-17T04:10:27.378Z,98273.00
2023-03-17T04:12:55.836Z,98280.00
2023-03-17T04:17:59.894Z,98258.00
2023-03-17T04:20:28.163Z,98262.00
2023-03-17T04:22:57.880Z,98264.00
2023-03-17T04:25:26.050Z,98271.00
2023-03-17T04:27:54.062Z,98267.00
2023-03-17T04:30:22.122Z,98268.00
2023-03-17T04:32:50.136Z,98257.00
2023-03-17T04:35:19.121Z,98261.00
2023-03-17T04:37:48.516Z,98263.00
2023-03-17T04:40:18.775Z,98263.00
2023-03-17T04:42:46.823Z,98272.00
2023-03-17T04:45:15.529Z,98257.00
2023-03-17T04:47:43.621Z,98274.00
2023-03-17T04:50:12.611Z,98267.00
2023-03-17T04:52:40.647Z,98268.00
2023-03-17T04:55:09.571Z,98282.00
2023-03-17T04:57:38.987Z,98270.00
2023-03-17T05:00:08.323Z,98280.00
2023-03-17T05:02:38.969Z,98268.00
2023-03-17T05:05:07.500Z,98278.00
2023-03-17T05:07:35.592Z,98274.00
2023-03-17T05:10:03.718Z,98281.00
2023-03-17T05:12:31.742Z,98262.00
2023-03-17T05:15:01.153Z,98253.00
2023-03-17T05:17:29.201Z,98266.00
2023-03-17T05:19:57.247Z,98257.00
2023-03-17T05:22:25.249Z,98247.00
2023-03-17T05:24:53.271Z,98252.00
2023-03-17T05:27:21.561Z,98255.00
2023-03-17T05:29:49.859Z,98265.00
2023-03-17T05:32:19.867Z,98275.00
2023-03-17T05:34:48.056Z,98268.00
2023-03-17T05:37:16.068Z,98280.00
2023-03-17T05:39:44.080Z,98271.00
2023-03-17T05:42:12.251Z,98273.00
2023-03-17T05:44:40.301Z,98258.00
2023-03-17T05:47:08.655Z,98256.00
2023-03-17T05:49:38.058Z,98257.00
2023-03-17T05:52:06.212Z,98255.00
2023-03-17T05:54:34.190Z,98235.00
2023-03-17T05:57:02.167Z,98238.00
2023-03-17T05:59:30.156Z,98226.00
2023-03-17T06:01:58.139Z,98224.00
2023-03-17T06:04:26.489Z,98230.00
2023-03-17T06:06:55.891Z,98238.00
2023-03-17T06:09:24.028Z,98235.00
2023-03-17T06:11:52.046Z,98228.00
2023-03-17T06:14:20.067Z,98224.00
2023-03-17T06:16:48.110Z,98221.00
2023-03-17T06:19:16.769Z,98222.00
2023-03-17T06:21:44.801Z,98234.00
2023-03-17T06:24:14.314Z,98228.00
2023-03-17T06:26:42.492Z,98231.00
2023-03-17T06:29:11.795Z,98231.00
2023-03-17T06:31:39.916Z,98228.00
2023-03-17T06:34:08.290Z,98229.00
2023-03-17T06:36:38.559Z,98236.00
2023-03-17T06:39:06.682Z,98236.00
2023-03-17T06:41:36.132Z,98249.00
2023-03-17T06:44:05.388Z,98252.00
2023-03-17T06:46:33.593Z,98259.00
2023-03-17T06:49:03.386Z,98249.00
2023-03-17T06:51:32.458Z,98253.00
2023-03-17T06:54:00.871Z,98260.00
2023-03-17T06:56:30.584Z,98270.00
2023-03-17T06:59:00.296Z,98261.00
2023-03-17T07:01:28.759Z,98266.00
2023-03-17T07:03:56.818Z,98265.00
2023-03-17T07:06:24.841Z,98283.00
2023-03-17T07:08:52.863Z,98287.00
2023-03-17T07:11:23.588Z,98298.00
2023-03-17T07:13:52.054Z,98283.00
2023-03-17T07:16:21.518Z,98275.00
2023-03-17T07:18:49.694Z,98270.00
2023-03-17T07:21:17.759Z,98268.00
2023-03-17T07:23:45.786Z,98278.00
2023-03-17T07:26:13.917Z,98281.00
2023-03-17T07:28:42.045Z,98273.00
2023-03-17T07:31:14.079Z,98266.00
2023-03-17T07:33:43.535Z,98282.00
2023-03-17T07:36:11.606Z,98250.00
2023-03-17T07:38:39.911Z,98263.00
2023-03-17T07:41:10.189Z,98261.00
2023-03-17T07:43:38.985Z,98264.00
2023-03-17T07:46:07.529Z,98258.00
2023-03-17T07:48:38.063Z,98250.00
2023-03-17T07:51:07.583Z,98253.00
2023-03-17T07:53:36.007Z,98250.00
2023-03-17T07:56:04.104Z,98239.00
2023-03-17T07:58:32.569Z,98236.00
2023-03-17T08:01:00.704Z,98249.00
2023-03-17T08:03:30.591Z,98248.00
2023-03-17T08:05:59.535Z,98247.00
2023-03-17T08:08:29.260Z,98239.00
2023-03-17T08:10:59.766Z,98238.00
2023-03-17T08:13:27.854Z,98237.00
2023-03-17T08:15:55.936Z,98230.00
2023-03-17T08:18:24.038Z,98233.00
2023-03-17T08:20:52.418Z,98241.00
2023-03-17T08:23:20.572Z,98242.00
2023-03-17T08:25:50.129Z,98244.00
2023-03-17T08:28:18.151Z,98231.00
2023-03-17T08:30:50.396Z,98235.00
2023-03-17T08:33:18.714Z,98233.00
2023-03-17T08:35:47.060Z,98222.00
2023-03-17T08:38:15.178Z,98228.00
2023-03-17T08:40:43.188Z,98223.00
2023-03-17T08:43:12.629Z,98229.00
2023-03-17T08:45:40.751Z,98219.00
2023-03-17T08:48:09.632Z,98214.00
2023-03-17T08:50:37.845Z,98201.00
2023-03-17T08:53:05.866Z,98211.00
2023-03-17T08:55:33.853Z,98208.00
2023-03-17T08:58:02.710Z,98200.00
2023-03-17T09:00:32.550Z,98209.00
2023-03-17T09:03:00.789Z,98204.00
2023-03-17T09:05:29.473Z,98205.00
2023-03-17T09:07:57.558Z,98210.00
2023-03-17T09:10:25.667Z,98198.00
2023-03-17T09:12:54.479Z,98209.00
2023-03-17T09:15:22.547Z,98214.00
2023-03-17T09:17:51.964Z,98221.00
2023-03-17T09:20:20.596Z,98204.00
2023-03-17T09:22:49.186Z,98205.00
2023-03-17T09:25:17.410Z,98205.00
2023-03-17T09:27:45.380Z,98205.00
2023-03-17T09:30:14.195Z,98208.00
2023-03-17T09:32:42.427Z,98204.00
2023-03-17T09:35:12.015Z,98210.00
2023-03-17T09:37:40.100Z,98207.00
2023-03-17T09:40:09.355Z,98208.00
2023-03-17T09:42:44.486Z,98213.00
2023-03-17T09:45:16.647Z,98209.00
2023-03-17T09:47:57.357Z,98213.00
2023-03-17T09:50:28.441Z,98215.00
2023-03-17T09:52:56.915Z,98211.00
2023-03-17T09:55:27.755Z,98202.00
2023-03-17T09:57:56.952Z,98201.00
2023-03-17T10:00:27.441Z,98201.00
2023-03-17T10:02:55.629Z,98207.00
2023-03-17T10:05:26.450Z,98195.00
2023-03-17T10:07:59.456Z,98214.00
2023-03-17T10:10:31.307Z,98200.00
2023-03-17T10:13:02.294Z,98196.00
2023-03-17T10:15:34.719Z,98193.00
2023-03-17T10:18:03.546Z,98192.00
2023-03-17T10:20:34.359Z,98185.00
2023-03-17T10:23:03.733Z,98184.00
2023-03-17T10:25:32.935Z,98177.00
2023-03-17T10:28:07.018Z,98160.00
2023-03-17T10:30:36.449Z,98164.00
2023-03-17T10:33:07.071Z,98164.00
2023-03-17T10:35:39.454Z,98155.00
2023-03-17T10:38:15.933Z,98141.00
2023-03-17T10:40:47.839Z,98136.00
2023-03-17T10:43:20.660Z,98139.00
2023-03-17T10:45:55.875Z,98136.00
2023-03-17T10:48:23.905Z,98141.00
2023-03-17T10:50:54.400Z,98140.00
2023-03-17T10:53:28.340Z,98136.00
2023-03-17T10:55:58.865Z,98139.00
2023-03-17T10:58:37.263Z,98136.00
2023-03-17T11:01:07.824Z,98127.00
2023-03-17T11:03:38.858Z,98133.00
2023-03-17T11:06:10.174Z,98127.00
2023-03-17T11:08:40.225Z,98128.00
2023-03-17T11:11:10.265Z,98129.00
2023-03-17T11:13:38.292Z,98119.00
2023-03-17T11:16:10.675Z,98103.00
2023-03-17T11:18:38.930Z,98102.00
2023-03-17T11:21:10.216Z,98111.00
2023-03-17T11:23:53.299Z,98107.00
2023-03-17T11:26:40.957Z,98105.00
2023-03-17T11:29:27.954Z,98094.00
2023-03-17T11:31:59.463Z,98097.00
2023-03-17T11:34:34.020Z,98094.00
2023-03-17T11:37:07.471Z,98102.00
2023-03-17T11:39:38.933Z,98097.00
2023-03-17T11:42:09.537Z,98089.00
2023-03-17T11:44:54.175Z,98087.00
2023-03-17T11:47:50.627Z,98083.00
2023-03-17T11:50:24.539Z,98077.00
2023-03-17T11:53:00.043Z,98070.00
2023-03-17T11:55:31.590Z,98073.00
2023-03-17T11:58:01.072Z,98082.00
2023-03-17T12:00:31.068Z,98074.00
2023-03-17T12:03:01.111Z,98086.00
2023-03-17T12:05:29.962Z,98077.00
2023-03-17T12:08:00.730Z,98080.00
2023-03-17T12:10:34.079Z,98069.00
2023-03-17T12:13:04.895Z,98071.00
2023-03-17T12:15:36.402Z,98060.00
2023-03-17T12:18:06.933Z,98062.00
2023-03-17T12:20:48.164Z,98049.00
2023-03-17T12:23:20.097Z,98053.00
2023-03-17T12:25:51.277Z,98041.00
2023-03-17T12:28:22.952Z,98038.00
2023-03-17T12:30:54.540Z,98036.00
2023-03-17T12:33:25.523Z,98040.00
2023-03-17T12:35:53.842Z,98040.00
2023-03-17T12:38:26.186Z,98037.00
2023-03-17T12:41:08.924Z,98029.00
2023-03-17T12:43:38.770Z,98038.00
2023-03-17T12:46:29.926Z,98033.00
2023-03-17T12:49:28.028Z,98015.00
2023-03-17T12:52:03.222Z,98016.00
2023-03-17T12:54:33.470Z,98017.00
2023-03-17T12:57:03.018Z,98008.00
2023-03-17T12:59:34.104Z,98012.00
2023-03-17T13:02:15.556Z,98016.00
2023-03-17T13:04:50.463Z,97999.00
2023-03-17T13:07:20.060Z,97996.00
2023-03-17T13:09:50.739Z,97996.00
2023-03-17T13:12:56.589Z,98007.00
2023-03-17T13:15:30.896Z,98002.00
2023-03-17T13:18:23.412Z,97985.00
2023-03-17T13:20:53.687Z,97986.00
2023-03-17T13:23:22.307Z,97986.00
2023-03-17T13:25:53.739Z,97976.00
2023-03-17T13:28:27.093Z,97975.00
2023-03-17T13:31:09.818Z,97973.00
2023-03-17T13:33:42.210Z,97978.00
2023-03-17T13:36:28.622Z,97962.00
2023-03-17T13:39:22.927Z,97963.00
2023-03-17T13:42:17.770Z,97958.00
2023-03-17T13:45:09.638Z,97958.00
2023-03-17T13:47:38.412Z,97946.00
2023-03-17T13:50:09.243Z,97941.00
2023-03-17T13:52:40.897Z,97965.00
2023-03-17T13:55:39.689Z,97962.00
2023-03-17T13:58:36.859Z,97955.00
2023-03-17T14:01:07.325Z,97950.00
2023-03-17T14:03:39.016Z,97940.00
2023-03-17T14:06:08.829Z,97940.00
2023-03-17T14:08:37.488Z,97943.00
2023-03-17T14:11:08.959Z,97938.00
2023-03-17T14:13:41.431Z,97931.00
2023-03-17T14:16:15.325Z,97944.00
2023-03-17T14:18:43.959Z,97934.00
2023-03-17T14:21:22.217Z,97938.00
2023-03-17T14:23:56.225Z,97942.00
2023-03-17T14:26:24.897Z,97927.00
2023-03-17T14:28:54.363Z,97922.00
2023-03-17T14:31:23.866Z,97920.00
2023-03-17T14:33:53.153Z,97921.00
2023-03-17T14:36:21.416Z,97911.00
2023-03-17T14:38:50.827Z,97912.00
2023-03-17T14:41:19.881Z,97897.00
2023-03-17T14:43:48.175Z,97918.00
2023-03-17T14:46:18.534Z,97898.00
2023-03-17T14:48:48.600Z,97899.00
2023-03-17T14:51:24.349Z,97904.00
2023-03-17T14:53:52.787Z,97912.00
2023-03-17T14:56:23.175Z,97921.00
2023-03-17T14:58:52.052Z,97910.00
2023-03-17T15:01:23.741Z,97909.00
2023-03-17T15:03:56.380Z,97895.00
2023-03-17T15:06:26.062Z,97903.00
2023-03-17T15:08:54.280Z,97893.00
2023-03-17T15:11:33.915Z,97892.00
2023-03-17T15:14:07.215Z,97890.00
2023-03-17T15:16:36.982Z,97888.00
2023-03-17T15:19:07.774Z,97882.00
2023-03-17T15:21:39.179Z,97882.00
2023-03-17T15:24:21.016Z,97882.00
2023-03-17T15:26:49.092Z,97869.00
2023-03-17T15:29:17.158Z,97884.00
2023-03-17T15:31:46.643Z,97871.00
2023-03-17T15:34:14.971Z,97876.00
2023-03-17T15:36:44.182Z,97879.00
2023-03-17T15:39:12.186Z,97870.00
2023-03-17T15:41:40.360Z,97865.00
2023-03-17T15:44:08.435Z,97870.00
2023-03-17T15:46:36.784Z,97870.00
2023-03-17T15:49:10.696Z,97871.00
2023-03-17T15:51:38.764Z,97874.00
2023-03-17T15:54:06.851Z,97869.00
2023-03-17T15:56:35.634Z,97864.00
2023-03-17T15:59:04.694Z,97860.00
2023-03-17T16:01:33.003Z,97862.00
2023-03-17T16:04:01.888Z,97872.00
2023-03-17T16:06:31.343Z,97866.00
2023-03-17T16:08:59.400Z,97864.00
2023-03-17T16:11:28.933Z,97852.00
2023-03-17T16:13:57.103Z,97846.00
2023-03-17T16:16:30.424Z,97854.00
2023-03-17T16:18:58.466Z,97860.00
2023-03-17T16:21:26.516Z,97858.00
2023-03-17T16:23:55.933Z,97856.00
2023-03-17T16:26:23.969Z,97859.00
2023-03-17T16:28:52.052Z,97850.00
2023-03-17T16:31:22.852Z,97846.00
2023-03-17T16:33:51.326Z,97846.00
2023-03-17T16:36:20.413Z,97839.00
2023-03-17T16:38:49.135Z,97840.00
2023-03-17T16:41:20.536Z,97852.00
2023-03-17T16:43:53.704Z,97843.00
2023-03-17T16:46:22.375Z,97845.00
2023-03-17T16:48:50.970Z,97848.00
2023-03-17T16:51:19.058Z,97847.00
2023-03-17T16:53:47.130Z,97851.00
2023-03-17T16:56:17.347Z,97852.00
2023-03-17T16:58:46.955Z,97860.00
2023-03-17T17:01:16.833Z,97854.00
2023-03-17T17:03:45.000Z,97851.00
2023-03-17T17:06:14.392Z,97854.00
2023-03-17T17:08:43.645Z,97863.00
2023-03-17T17:11:13.091Z,97861.00
2023-03-17T17:13:41.631Z,97860.00
2023-03-17T17:16:17.454Z,97856.00
2023-03-17T17:18:47.275Z,97847.00
2023-03-17T17:21:18.371Z,97851.00
2023-03-17T17:23:46.584Z,97861.00
2023-03-17T17:26:14.724Z,97852.00
2023-03-17T17:28:42.876Z,97851.00
2023-03-17T17:31:12.352Z,97854.00
2023-03-17T17:33:40.548Z,97849.00
2023-03-17T17:36:12.924Z,97850.00
2023-03-17T17:38:41.316Z,97851.00
2023-03-17T17:41:10.413Z,97851.00
2023-03-17T17:43:38.524Z,97857.00
2023-03-17T17:46:13.417Z,97850.00
2023-03-17T17:48:41.539Z,97852.00
2023-03-17T17:51:09.692Z,97852.00
2023-03-17T17:53:37.946Z,97859.00
2023-03-17T17:56:06.416Z,97872.00
2023-03-17T17:58:34.423Z,97866.00
2023-03-17T18:01:04.791Z,97862.00
2023-03-17T18:03:34.251Z,97859.00
2023-03-17T18:06:02.529Z,97867.00
2023-03-17T18:08:30.544Z,97875.00
2023-03-17T18:10:58.569Z,97866.00
2023-03-17T18:13:26.634Z,97868.00
2023-03-17T18:15:54.672Z,97872.00
2023-03-17T18:18:22.729Z,97877.00
2023-03-17T18:20:53.138Z,97879.00
2023-03-17T18:23:21.617Z,97874.00
2023-03-17T18:25:49.692Z,97881.00
2023-03-17T18:28:18.050Z,97889.00
2023-03-17T18:30:46.154Z,97885.00
2023-03-17T18:33:15.791Z,97882.00
2023-03-17T18:35:43.978Z,97881.00
2023-03-17T18:38:13.424Z,97882.00
2023-03-17T18:40:41.913Z,97882.00
2023-03-17T18:43:09.996Z,97885.00
2023-03-17T18:45:38.076Z,97879.00
2023-03-17T18:48:06.233Z,97892.00
2023-03-17T18:50:34.399Z,97889.00
2023-03-17T18:53:02.594Z,97885.00
2023-03-17T18:55:31.982Z,97877.00
2023-03-17T18:58:00.002Z,97898.00
2023-03-17T19:00:28.087Z,97888.00
2023-03-17T19:02:56.251Z,97872.00
2023-03-17T19:05:25.686Z,97891.00
2023-03-17T19:07:53.778Z,97894.00
2023-03-17T19:10:21.865Z,97890.00
2023-03-17T19:12:52.131Z,97897.00
2023-03-17T19:15:20.761Z,97890.00
2023-03-17T19:17:50.389Z,97901.00
2023-03-17T19:20:19.816Z,97904.00
2023-03-17T19:22:47.849Z,97896.00
2023-03-17T19:25:16.626Z,97885.00
2023-03-17T19:27:44.741Z,97895.00
2023-03-17T19:30:14.840Z,97891.00
2023-03-17T19:32:42.911Z,97894.00
2023-03-17T19:35:11.721Z,97895.00
2023-03-17T19:37:39.796Z,97889.00
2023-03-17T19:40:09.840Z,97891.00
2023-03-17T19:42:38.012Z,97896.00
2023-03-17T19:45:06.968Z,97887.00
2023-03-17T19:47:36.430Z,97891.00
2023-03-17T19:50:07.182Z,97893.00
2023-03-17T19:52:35.614Z,97897.00
2023-03-17T19:55:05.449Z,97900.00
2023-03-17T19:57:35.504Z,97901.00
2023-03-17T20:00:03.788Z,97907.00
2023-03-17T20:02:32.010Z,97903.00
2023-03-17T20:05:01.514Z,97906.00
2023-03-17T20:07:29.720Z,97910.00
2023-03-17T20:09:58.108Z,97906.00
2023-03-17T20:12:26.545Z,97908.00
2023-03-17T20:14:54.643Z,97913.00
2023-03-17T20:17:22.815Z,97902.00
2023-03-17T20:19:50.869Z,97901.00
2023-03-17T20:22:23.222Z,97906.00
2023-03-17T20:24:51.625Z,97909.00
2023-03-17T20:27:19.909Z,97903.00
2023-03-17T20:29:48.613Z,97902.00
2023-03-17T20:32:17.290Z,97906.00
2023-03-17T20:34:45.442Z,97905.00
2023-03-17T20:37:14.234Z,97915.00
2023-03-17T20:39:44.059Z,97907.00
2023-03-17T20:42:14.824Z,97911.00
2023-03-17T20:44:43.030Z,97898.00
2023-03-17T20:47:11.433Z,97902.00
2023-03-17T20:49:39.588Z,97910.00
2023-03-17T20:52:11.970Z,97918.00
2023-03-17T20:54:40.480Z,97908.00
2023-03-17T20:57:11.366Z,97914.00
2023-03-17T20:59:39.786Z,97925.00
2023-03-17T21:02:10.332Z,97913.00
2023-03-17T21:04:38.392Z,97908.00
2023-03-17T21:07:06.676Z,97908.00
2023-03-17T21:09:34.790Z,97908.00
2023-03-17T21:12:02.949Z,97916.00
2023-03-17T21:14:32.669Z,97916.00
2023-03-17T21:17:01.355Z,97916.00
2023-03-17T21:19:29.476Z,97913.00
2023-03-17T21:21:57.966Z,97906.00
2023-03-17T21:24:28.188Z,97916.00
2023-03-17T21:26:56.436Z,97914.00
2023-03-17T21:29:24.558Z,97909.00
2023-03-17T21:31:54.357Z,97915.00
2023-03-17T21:34:24.389Z,97923.00
2023-03-17T21:36:52.750Z,97924.00
2023-03-17T21:39:20.908Z,97914.00
2023-03-17T21:41:49.207Z,97924.00
2023-03-17T21:44:17.902Z,97916.00
2023-03-17T21:46:46.340Z,97932.00
2023-03-17T21:49:16.360Z,97935.00
2023-03-17T21:51:44.555Z,97925.00
2023-03-17T21:54:12.622Z,97932.00
2023-03-17T21:56:41.526Z,97924.00
2023-03-17T21:59:11.028Z,97922.00
2023-03-17T22:01:39.606Z,97929.00
2023-03-17T22:04:07.874Z,97933.00
2023-03-17T22:06:37.529Z,97929.00
2023-03-17T22:09:05.695Z,97917.00
2023-03-17T22:11:33.747Z,97920.00
2023-03-17T22:14:02.042Z,97937.00
2023-03-17T22:16:30.321Z,97930.00
2023-03-17T22:18:58.342Z,97938.00
2023-03-17T22:21:26.437Z,97934.00
2023-03-17T22:23:56.009Z,97940.00
2023-03-17T22:26:24.143Z,97944.00
2023-03-17T22:28:52.272Z,97936.00
2023-03-17T22:31:21.405Z,97926.00
2023-03-17T22:33:49.549Z,97943.00
2023-03-17T22:36:17.960Z,97942.00
2023-03-17T22:38:46.030Z,97940.00
2023-03-17T22:41:16.721Z,97936.00
2023-03-17T22:43:44.864Z,97937.00
2023-03-17T22:46:12.954Z,97935.00
2023-03-17T22:48:41.230Z,97936.00
2023-03-17T22:51:11.029Z,97934.00
2023-03-17T22:53:39.347Z,97934.00
2023-03-17T22:56:08.090Z,97944.00
2023-03-17T22:58:37.680Z,97937.00
2023-03-17T23:01:06.885Z,97937.00
2023-03-17T23:03:35.133Z,97935.00
2023-03-17T23:06:03.907Z,97936.00
2023-03-17T23:08:35.161Z,97939.00
2023-03-17T23:11:04.644Z,97946.00
2023-03-17T23:13:32.689Z,97943.00
2023-03-17T23:16:02.590Z,97955.00
2023-03-17T23:18:30.678Z,97954.00
2023-03-17T23:20:58.811Z,97952.00
2023-03-17T23:23:26.911Z,97960.00
2023-03-17T23:25:55.008Z,97955.00
2023-03-17T23:28:23.202Z,97963.00
2023-03-17T23:30:51.310Z,97957.00
2023-03-17T23:33:22.767Z,97964.00
2023-03-17T23:35:51.535Z,97953.00
2023-03-17T23:38:21.395Z,97964.00
2023-03-17T23:40:49.833Z,97968.00
2023-03-17T23:43:18.080Z,97962.00
2023-03-17T23:45:46.592Z,97965.00
2023-03-17T23:48:15.202Z,97968.00
2023-03-17T23:50:44.692Z,97983.00
2023-03-17T23:53:13.293Z,97978.00
2023-03-17T23:55:41.418Z,97985.00
2023-03-17T23:58:09.452Z,97977.00
